Nearby METAR Reports

 

KIAD - Wash Dc/Dulles, Virginia, USA
Distance from station: ESE 7mi, 11km
Updated: Thu, 21-Jan-2021 5:52am EST
Overcast
Overcast
 Wind from S
Wind: S 5 mph , 7 km/h
Temperature: 27°F , -3°C
Wind Chill: 21°F , -6°C
Dew Point: 19°F , -7°C
Humidity: 74%
Barometer: 29.91 inHg , 1012.9 hPa
Clouds: Overcast
Visibility: 10 miles , 16 km
Cloud details: Overcast 9500 ft
2021/01/21 10:52 KIAD 211052Z 18004KT 10SM OVC095 M03/M07 A2991 RMK AO2 SLP131 T10331067
KJYO - Leesburg/Godfrey, Virginia, USA
Distance from station: N 7mi, 12km
Updated: Thu, 21-Jan-2021 5:55am EST
Overcast
Overcast
 Wind from SSW
Wind: SSW 3 mph , 6 km/h
Temperature: 28°F , -2°C
Dew Point: 21°F , -6°C
Humidity: 74%
Barometer: 29.92 inHg , 1013.2 hPa
Clouds: Overcast
Visibility: 10 miles , 16 km
Cloud details: Overcast 9500 ft
2021/01/21 10:55 KJYO 211055Z AUTO 21003KT 10SM OVC095 M02/M06 A2992 RMK AO2
KHEF - Manassas Muni, Virginia, USA
Distance from station: S 17mi, 28km
Updated: Thu, 21-Jan-2021 4:56am EST
Overcast
Overcast
 Wind from calm
Wind: Calm
Temperature: 23°F , -5°C
Dew Point: 21°F , -6°C
Humidity: 93%
Barometer: 29.94 inHg , 1013.9 hPa
Clouds: Overcast
Visibility: 10 miles , 16 km
Cloud details: Overcast 9500 ft
2021/01/21 09:56 KHEF 210956Z AUTO 00000KT 10SM OVC095 M05/M06 A2994 RMK AO2 SLP147 T10501061 FZRANO
 
KGAI - Gaithersburg, Maryland, USA
Distance from station: NE 26mi, 41km
Updated: Thu, 21-Jan-2021 4:56am EST
Mostly cloudy
Mostly cloudy
 Wind from calm
Wind: Calm
Temperature: 23°F , -5°C
Dew Point: 18°F , -8°C
Humidity: 80%
Barometer: 29.91 inHg , 1012.9 hPa
Clouds: Mostly cloudy
Visibility: 10 miles , 16 km
Cloud details: Mostly cloudy 9000 ft
2021/01/21 09:56 KGAI 210956Z AUTO 00000KT 10SM BKN090 M05/M08 A2991 RMK AO2 SLP149 T10501078 FZRANO
KDAA - Fort Belvoir/Dav, Virginia, USA
Distance from station: SE 27mi, 44km
Updated: Wed, 20-Jan-2021 1:56pm EST
NOT Current
Clear
Clear
 Wind from NW
Wind: NW 23 mph , 37 km/h, Gust: 32 mph , 52 km/h
Temperature: 43°F , 6°C
Wind Chill: 34°F , 1°C
Dew Point: 19°F , -7°C
Humidity: 39%
Barometer: 30.06 inHg , 1017.9 hPa
Clouds: Clear
Visibility: 10 miles , 16 km
2021/01/20 18:56 KDAA 201856Z AUTO 31020G28KT 10SM CLR 06/M07 A3006 RMK AO2 PK WND 29030/1759 SLP183 T00641069 $
KHWY - Warrenton, Virginia, USA
Distance from station: SSW 27mi, 44km
Updated: Thu, 21-Jan-2021 5:55am EST
Overcast
Overcast
 Wind from calm
Wind: Calm
Temperature: 27°F , -3°C
Dew Point: 23°F , -5°C
Humidity: 86%
Barometer: 29.91 inHg , 1012.9 hPa
Clouds: Overcast
Visibility: 10 miles , 16 km
Cloud details: Overcast 10000 ft
2021/01/21 10:55 KHWY 211055Z AUTO 00000KT 10SM OVC100 M03/M05 A2991 RMK AO2 T10281055
 
KDCA - Washington/Natl, Washington D.c., USA
Distance from station: ESE 30mi, 48km
Updated: Thu, 21-Jan-2021 5:52am EST
Overcast
Overcast
 Wind from SSW
Wind: SSW 7 mph , 11 km/h
Temperature: 30°F , -1°C
Wind Chill: 23°F , -5°C
Dew Point: 19°F , -7°C
Humidity: 64%
Barometer: 29.95 inHg , 1014.2 hPa
Clouds: Overcast
Visibility: 10 miles , 16 km
Cloud details: Overcast 9500 ft
2021/01/21 10:52 KDCA 211052Z 21006KT 10SM OVC095 M01/M07 A2995 RMK AO2 SLP140 T10061072
KFDK - Frederick, Maryland, USA
Distance from station: NNE 33mi, 53km
Updated: Thu, 21-Jan-2021 5:55am EST
Overcast
Overcast
 Wind from calm
Wind: Calm
Temperature: 28°F , -2°C
Dew Point: 21°F , -6°C
Humidity: 74%
Barometer: 29.91 inHg , 1012.9 hPa
Clouds: Overcast
Visibility: 10 miles , 16 km
Cloud details: Overcast 10000 ft
2021/01/21 10:55 KFDK 211055Z AUTO 00000KT 10SM OVC100 M02/M06 A2991 RMK AO2
KOKV - Winchester Rgnl, Virginia, USA
Distance from station: WNW 33mi, 54km
Updated: Thu, 21-Jan-2021 5:55am EST
Overcast
Overcast
 Wind from S
Wind: S 6 mph , 9 km/h
Temperature: 30°F , -1°C
Wind Chill: 24°F , -4°C
Dew Point: 19°F , -7°C
Humidity: 64%
Barometer: 29.85 inHg , 1010.8 hPa
Clouds: Overcast
Visibility: 10 miles , 16 km
Cloud details: Overcast 9000 ft
2021/01/21 10:55 KOKV 211055Z AUTO 18005KT 10SM OVC090 M01/M07 A2985 RMK AO2
 
KCJR - Culpeper, Virginia, USA
Distance from station: SSW 34mi, 54km
Updated: Thu, 21-Jan-2021 5:35am EST
Overcast
Overcast
 Wind from calm
Wind: Calm
Temperature: 27°F , -3°C
Dew Point: 23°F , -5°C
Humidity: 86%
Barometer: 29.93 inHg , 1013.5 hPa
Clouds: Overcast
Visibility: 10 miles , 16 km
Cloud details: Overcast 9000 ft
2021/01/21 10:35 KCJR 211035Z AUTO 00000KT 10SM OVC090 M03/M05 A2993 RMK AO2 T10311052
KCGS - College Park, Maryland, USA
Distance from station: E 35mi, 56km
Updated: Thu, 21-Jan-2021 5:55am EST
Overcast
Overcast
 Wind from calm
Wind: Calm
Temperature: 25°F , -4°C
Dew Point: 19°F , -7°C
Humidity: 80%
Barometer: 29.93 inHg , 1013.5 hPa
Clouds: Overcast
Visibility: 10 miles , 16 km
Cloud details: Overcast 10000 ft
2021/01/21 10:55 KCGS 211055Z AUTO 00000KT 10SM OVC100 M04/M07 A2993 RMK AO1 T10381069
KNYG - Quantico Mcaf, Virginia, USA
Distance from station: SSE 35mi, 57km
Updated: Thu, 21-Jan-2021 4:56am EST
Overcast
Overcast
 Wind from S
Wind: S 12 mph , 19 km/h
Temperature: 36°F , 2°C
Wind Chill: 28°F , -2°C
Dew Point: 25°F , -4°C
Humidity: 65%
Barometer: 29.96 inHg , 1014.6 hPa
Clouds: Overcast
Visibility: 10 miles , 16 km
Cloud details: Overcast 9500 ft
2021/01/21 09:56 KNYG 210956Z AUTO 17010KT 10SM OVC095 02/M04 A2996 RMK AO2 SLP147 T00171044 $
 
KFRR - Fort Royal, Virginia, USA
Distance from station: W 37mi, 59km
Updated: Thu, 21-Jan-2021 5:55am EST
Overcast
Overcast
 Wind from calm
Wind: Calm
Temperature: 30°F , -1°C
Dew Point: 21°F , -6°C
Humidity: 69%
Barometer: 29.86 inHg , 1011.2 hPa
Clouds: Overcast
Visibility: 10 miles , 16 km
Cloud details: Overcast 9500 ft
2021/01/21 10:55 KFRR 211055Z AUTO 00000KT 10SM OVC095 M01/M06 A2986 RMK AO1
KMRB - Martinsburg, West Virginia, USA
Distance from station: NW 38mi, 61km
Updated: Thu, 21-Jan-2021 5:53am EST
Overcast
Overcast
 Wind from calm
Wind: Calm
Temperature: 25°F , -4°C
Dew Point: 19°F , -7°C
Humidity: 80%
Barometer: 29.86 inHg , 1011.2 hPa
Clouds: Overcast
Visibility: 10 miles , 16 km
Cloud details: Overcast 9500 ft
2021/01/21 10:53 KMRB 211053Z AUTO 00000KT 10SM OVC095 M04/M07 A2986 RMK AO2 SLP117 T10441072
KADW - Andrews Afb, Maryland, USA
Distance from station: ESE 39mi, 63km
Updated: Wed, 20-Jan-2021 1:56pm EST
NOT Current
Few Clouds
Few Clouds
 Wind from WNW
Wind: WNW 22 mph , 35 km/h, Gust: 31 mph , 50 km/h
Temperature: 45°F , 7°C
Wind Chill: 37°F , 3°C
Dew Point: 19°F , -7°C
Humidity: 37%
Barometer: 30.02 inHg , 1016.6 hPa
Clouds: Few Clouds
Visibility: 10 miles , 16 km
Cloud details: Few Clouds 5500 ft
2021/01/20 18:56 KADW 201856Z AUTO 29019G27KT 10SM FEW055 07/M07 A3002 RMK AO2 PK WND 29028/21 SLP175 T00671073 $
 
KRMN - Stafford Regnl, Virginia, USA
Distance from station: S 39mi, 63km
Updated: Thu, 21-Jan-2021 5:35am EST
Overcast
Overcast
 Wind from calm
Wind: Calm
Temperature: 27°F , -3°C
Dew Point: 23°F , -5°C
Humidity: 86%
Barometer: 29.98 inHg , 1015.2 hPa
Clouds: Overcast
Visibility: 10 miles , 16 km
Cloud details: Overcast 9000 ft
2021/01/21 10:35 KRMN 211035Z AUTO 00000KT 10SM OVC090 M03/M05 A2998 RMK AO2 T10281050
KFME - Fort Meade, Maryland, USA
Distance from station: ENE 44mi, 70km
Updated: Thu, 21-Jan-2021 5:55am EST
Overcast
Overcast
 Wind from calm
Wind: Calm
Temperature: 23°F , -5°C
Dew Point: 23°F , -5°C
Humidity: 100%
Barometer: 29.95 inHg , 1014.2 hPa
Clouds: Overcast
Visibility: 10 miles , 16 km
Cloud details: Overcast 9000 ft
2021/01/21 10:55 KFME 211055Z AUTO 00000KT 10SM OVC090 M05/M05 A2995 RMK AO1
KRSP - Nsf Thurmont, Maryland, USA
Distance from station: N 48mi, 77km
Updated: Thu, 21-Jan-2021 5:54am EST
Overcast
Overcast
 Wind from S
Wind: S 12 mph , 19 km/h, Gust: 18 mph , 30 km/h
Temperature: 25°F , -4°C
Wind Chill: 14°F , -10°C
Dew Point: 12°F , -11°C
Humidity: 59%
Barometer: 29.78 inHg , 1008.5 hPa
Clouds: Overcast
Visibility: 10 miles , 16 km
Cloud details: Overcast 8500 ft
2021/01/21 10:54 KRSP 211054Z AUTO 19010G16KT 170V230 10SM OVC085 M04/M11 A2978 RMK AO2 SLP113 T10441106 TSNO PNO $
 
KEZF - Fredericksb/Shan, Virginia, USA
Distance from station: S 48mi, 78km
Updated: Wed, 20-Jan-2021 1:35pm EST
NOT Current
Partly cloudy
Partly cloudy
 Wind from W
Wind: W 18 mph , 30 km/h, Gust: 26 mph , 43 km/h
Temperature: 48°F , 9°C
Wind Chill: 41°F , 5°C
Dew Point: 21°F , -6°C
Humidity: 34%
Barometer: 30.03 inHg , 1016.9 hPa
Clouds: Partly cloudy
Visibility: 10 miles , 16 km
Cloud details: Partly cloudy 7500 ft
2021/01/20 18:35 KEZF 201835Z AUTO 28016G23KT 10SM SCT075 09/M06 A3003 RMK AO2 T00901057
KBWI - Balto/Wash Intl, Maryland, USA
Distance from station: ENE 49mi, 80km
Updated: Thu, 21-Jan-2021 5:54am EST
Overcast
Overcast
 Wind from SW
Wind: SW 5 mph , 7 km/h
Temperature: 28°F , -2°C
Wind Chill: 22°F , -6°C
Dew Point: 18°F , -8°C
Humidity: 64%
Barometer: 29.91 inHg , 1012.9 hPa
Clouds: Overcast
Visibility: 10 miles , 16 km
Cloud details: Overcast 9500 ft
2021/01/21 10:54 KBWI 211054Z 22004KT 10SM OVC095 M02/M08 A2991 RMK AO2 SLP131 T10221083